createdAt,value
2018-04-18T00:01:26.756Z,63.83
2018-04-18T00:03:56.757Z,64.92
2018-04-18T00:06:26.783Z,63.67
2018-04-18T00:08:56.827Z,63.33
2018-04-18T00:11:26.261Z,62.68
2018-04-18T00:13:55.866Z,63.60
2018-04-18T00:16:25.907Z,62.76
2018-04-18T00:18:55.434Z,62.88
2018-04-18T00:21:25.199Z,61.81
2018-04-18T00:23:54.974Z,62.05
2018-04-18T00:26:24.885Z,62.13
2018-04-18T00:28:54.619Z,62.14
2018-04-18T00:31:24.590Z,61.94
2018-04-18T00:33:54.075Z,61.91
2018-04-18T00:36:23.521Z,61.88
2018-04-18T00:38:53.197Z,62.09
2018-04-18T00:41:22.618Z,62.13
2018-04-18T00:43:52.102Z,62.64
2018-04-18T00:46:21.847Z,64.73
2018-04-18T00:48:51.321Z,62.25
2018-04-18T00:51:20.771Z,66.30
2018-04-18T00:53:50.494Z,67.76
2018-04-18T00:56:19.911Z,65.43
2018-04-18T00:58:49.336Z,63.21
2018-04-18T01:01:19.230Z,63.45
2018-04-18T01:03:48.677Z,67.08
2018-04-18T01:06:18.410Z,69.20
2018-04-18T01:08:48.222Z,68.87
2018-04-18T01:11:17.622Z,68.89
2018-04-18T01:13:47.083Z,66.13
2018-04-18T01:16:16.881Z,65.58
2018-04-18T01:18:46.586Z,66.90
2018-04-18T01:21:16.360Z,68.31
2018-04-18T01:23:46.180Z,66.77
2018-04-18T01:26:15.853Z,67.19
2018-04-18T01:28:45.531Z,67.10
2018-04-18T01:31:15.931Z,65.22
2018-04-18T01:33:45.410Z,64.20
2018-04-18T01:36:15.334Z,64.04
2018-04-18T01:38:45.300Z,64.31
2018-04-18T01:41:14.810Z,64.26
2018-04-18T01:43:44.277Z,63.75
2018-04-18T01:46:14.418Z,64.79
2018-04-18T01:48:44.182Z,67.67
2018-04-18T01:51:13.861Z,69.30
2018-04-18T01:53:43.879Z,67.56
2018-04-18T01:56:13.295Z,67.68
2018-04-18T01:58:42.894Z,66.77
2018-04-18T02:01:12.875Z,69.07
2018-04-18T02:03:42.325Z,70.11
2018-04-18T02:06:11.710Z,68.89
2018-04-18T02:08:42.200Z,70.27
2018-04-18T02:11:11.954Z,71.16
2018-04-18T02:13:41.355Z,71.32
2018-04-18T02:16:11.060Z,71.98
2018-04-18T02:18:40.474Z,71.82
2018-04-18T02:21:10.006Z,70.84
2018-04-18T02:23:39.962Z,71.49
2018-04-18T02:26:09.366Z,72.09
2018-04-18T02:28:38.843Z,72.79
2018-04-18T02:31:08.663Z,70.06
2018-04-18T02:33:38.122Z,66.37
2018-04-18T02:36:07.771Z,65.92
2018-04-18T02:38:39.200Z,65.04
2018-04-18T02:41:09.237Z,64.49
2018-04-18T02:43:38.682Z,64.77
2018-04-18T02:46:08.573Z,64.26
2018-04-18T02:48:38.323Z,67.99
2018-04-18T02:51:08.229Z,69.92
2018-04-18T02:53:37.693Z,67.76
2018-04-18T02:56:07.168Z,68.65
2018-04-18T02:58:36.881Z,71.46
2018-04-18T03:01:06.357Z,73.05
2018-04-18T03:03:36.129Z,74.31
2018-04-18T03:06:05.910Z,74.57
2018-04-18T03:08:35.327Z,74.75
2018-04-18T03:11:10.469Z,75.49
2018-04-18T03:13:40.178Z,75.51
2018-04-18T03:16:09.618Z,76.37
2018-04-18T03:18:39.112Z,76.26
2018-04-18T03:21:09.118Z,76.39
2018-04-18T03:23:39.003Z,76.41
2018-04-18T03:26:08.916Z,76.91
2018-04-18T03:28:38.994Z,77.45
2018-04-18T03:31:08.826Z,77.61
2018-04-18T03:33:38.503Z,77.67
2018-04-18T03:36:09.210Z,77.51
2018-04-18T03:38:38.614Z,76.15
2018-04-18T03:41:08.030Z,75.64
2018-04-18T03:43:37.862Z,72.83
2018-04-18T03:46:07.714Z,70.50
2018-04-18T03:48:37.126Z,71.25
2018-04-18T03:51:07.145Z,72.68
2018-04-18T03:53:36.588Z,69.11
2018-04-18T03:56:06.297Z,67.00
2018-04-18T03:58:36.179Z,66.82
2018-04-18T04:01:05.944Z,66.74
2018-04-18T04:03:35.450Z,67.11
2018-04-18T04:06:05.444Z,67.35
2018-04-18T04:08:34.913Z,67.00
2018-04-18T04:11:04.381Z,66.55
2018-04-18T04:13:34.178Z,66.03
2018-04-18T04:16:03.799Z,65.91
2018-04-18T04:20:47.602Z,65.99
2018-04-18T04:25:27.415Z,65.39
2018-04-18T04:27:57.255Z,65.52
2018-04-18T04:30:27.063Z,65.18
2018-04-18T04:32:56.464Z,65.23
2018-04-18T04:35:27.049Z,65.45
2018-04-18T04:37:56.475Z,65.96
2018-04-18T04:40:25.958Z,66.30
2018-04-18T04:42:55.903Z,66.64
2018-04-18T04:45:25.430Z,66.18
2018-04-18T04:47:54.908Z,66.97
2018-04-18T04:50:25.109Z,66.13
2018-04-18T04:52:54.785Z,66.02
2018-04-18T04:55:24.361Z,66.00
2018-04-18T04:57:54.198Z,66.07
2018-04-18T05:00:23.714Z,65.99
2018-04-18T05:02:53.155Z,66.49
2018-04-18T05:05:22.895Z,66.72
2018-04-18T05:07:52.422Z,66.62
2018-04-18T05:10:21.844Z,67.68
2018-04-18T05:12:51.517Z,67.42
2018-04-18T05:15:21.412Z,67.61
2018-04-18T05:17:50.943Z,67.49
2018-04-18T05:20:21.679Z,66.73
2018-04-18T05:22:51.186Z,66.32
2018-04-18T05:25:20.592Z,66.48
2018-04-18T05:27:50.341Z,66.32
2018-04-18T05:30:20.188Z,66.41
2018-04-18T05:32:49.638Z,67.35
2018-04-18T05:35:19.434Z,69.19
2018-04-18T05:37:48.878Z,67.73
2018-04-18T05:40:18.767Z,66.88
2018-04-18T05:42:48.521Z,66.40
2018-04-18T05:45:17.965Z,65.30
2018-04-18T05:47:47.366Z,66.06
2018-04-18T05:50:17.709Z,65.22
2018-04-18T05:52:47.246Z,64.40
2018-04-18T05:55:16.878Z,64.92
2018-04-18T05:57:46.859Z,65.30
2018-04-18T06:00:16.687Z,65.48
2018-04-18T06:02:46.467Z,65.23
2018-04-18T06:05:16.514Z,64.86
2018-04-18T06:07:46.347Z,64.38
2018-04-18T06:10:15.814Z,63.26
2018-04-18T06:12:45.627Z,63.98
2018-04-18T06:15:15.125Z,63.65
2018-04-18T06:17:44.774Z,63.07
2018-04-18T06:20:14.522Z,62.96
2018-04-18T06:22:44.276Z,63.60
2018-04-18T06:25:15.008Z,63.41
2018-04-18T06:27:44.738Z,62.92
2018-04-18T06:30:14.187Z,62.81
2018-04-18T06:32:43.738Z,63.65
2018-04-18T06:35:13.920Z,62.67
2018-04-18T06:37:45.283Z,62.55
2018-04-18T06:40:14.673Z,62.83
2018-04-18T06:42:45.369Z,63.84
2018-04-18T06:45:14.898Z,62.78
2018-04-18T06:47:44.357Z,62.99
2018-04-18T06:50:14.277Z,63.94
2018-04-18T06:52:44.910Z,63.02
2018-04-18T06:55:14.304Z,62.60
2018-04-18T06:57:44.211Z,61.93
2018-04-18T07:00:13.862Z,61.50
2018-04-18T07:02:43.335Z,61.44
2018-04-18T07:05:13.041Z,60.67
2018-04-18T07:07:42.564Z,60.01
2018-04-18T07:10:11.962Z,59.82
2018-04-18T07:12:42.718Z,60.84
2018-04-18T07:15:12.134Z,59.64
2018-04-18T07:17:41.568Z,58.43
2018-04-18T07:20:11.294Z,59.02
2018-04-18T07:22:40.686Z,57.15
2018-04-18T07:25:10.197Z,54.33
2018-04-18T07:27:40.080Z,55.13
2018-04-18T07:30:09.827Z,54.14
2018-04-18T07:32:39.234Z,54.49
2018-04-18T07:35:08.923Z,52.46
2018-04-18T07:37:38.343Z,51.74
2018-04-18T07:40:07.908Z,52.20
2018-04-18T07:42:38.553Z,51.98
2018-04-18T07:45:09.141Z,51.61
2018-04-18T07:47:38.818Z,51.97
2018-04-18T07:50:08.513Z,51.37
2018-04-18T07:52:38.134Z,49.34
2018-04-18T07:55:07.823Z,48.50
2018-04-18T07:57:37.262Z,50.81
2018-04-18T08:00:06.758Z,52.94
2018-04-18T08:02:36.646Z,51.03
2018-04-18T08:05:06.123Z,51.48
2018-04-18T08:07:35.559Z,51.40
2018-04-18T08:10:05.594Z,52.76
2018-04-18T08:12:35.049Z,53.44
2018-04-18T08:15:04.514Z,51.71
2018-04-18T08:17:34.267Z,52.47
2018-04-18T08:20:04.785Z,51.94
2018-04-18T08:22:34.342Z,52.56
2018-04-18T08:25:04.101Z,50.96
2018-04-18T08:27:33.745Z,51.77
2018-04-18T08:30:03.333Z,52.02
2018-04-18T08:32:33.254Z,52.45
2018-04-18T08:35:02.683Z,51.90
2018-04-18T08:37:32.110Z,50.48
2018-04-18T08:40:01.842Z,51.20
2018-04-18T08:42:31.327Z,50.96
2018-04-18T08:45:00.743Z,49.87
2018-04-18T08:47:30.446Z,50.74
2018-04-18T08:50:00.236Z,51.61
2018-04-18T08:52:29.800Z,50.80
2018-04-18T08:54:59.905Z,49.64
2018-04-18T08:57:29.357Z,51.22
2018-04-18T08:59:59.290Z,50.51
2018-04-18T09:02:28.986Z,51.35
2018-04-18T09:05:00.089Z,49.63
2018-04-18T09:07:30.037Z,47.85
2018-04-18T09:09:59.792Z,51.15
2018-04-18T09:12:29.230Z,49.92
2018-04-18T09:14:58.733Z,52.45
2018-04-18T09:17:28.417Z,50.93
2018-04-18T09:19:57.894Z,52.18
2018-04-18T09:22:27.382Z,47.51
2018-04-18T09:24:57.334Z,46.66
2018-04-18T09:27:26.870Z,45.19
2018-04-18T09:29:56.515Z,46.74
2018-04-18T09:32:26.521Z,47.46
2018-04-18T09:34:55.995Z,47.10
2018-04-18T09:37:25.754Z,46.18
2018-04-18T09:39:55.466Z,49.24
2018-04-18T09:42:24.919Z,48.09
2018-04-18T09:44:54.363Z,48.65
2018-04-18T09:47:24.141Z,48.58
2018-04-18T09:49:53.585Z,47.75
2018-04-18T09:52:23.079Z,45.97
2018-04-18T09:54:52.829Z,46.46
2018-04-18T09:57:22.392Z,45.79
2018-04-18T09:59:51.838Z,45.86
2018-04-18T10:02:25.646Z,46.61
2018-04-18T10:04:55.273Z,48.20
2018-04-18T10:07:25.010Z,46.89
2018-04-18T10:09:54.486Z,45.77
2018-04-18T10:12:24.004Z,47.00
2018-04-18T10:14:54.035Z,45.23
2018-04-18T10:17:23.594Z,44.92
2018-04-18T10:19:53.019Z,45.57
2018-04-18T10:22:22.822Z,46.34
2018-04-18T10:24:52.237Z,42.38
2018-04-18T10:27:21.791Z,41.40
2018-04-18T10:29:51.734Z,39.70
2018-04-18T10:32:21.289Z,40.06
2018-04-18T10:34:50.685Z,40.84
2018-04-18T10:37:20.543Z,38.82
2018-04-18T10:39:49.978Z,38.33
2018-04-18T10:42:19.533Z,40.14
2018-04-18T10:44:49.593Z,39.15
2018-04-18T10:47:19.151Z,40.08
2018-04-18T10:49:48.746Z,41.47
2018-04-18T10:52:19.061Z,37.92
2018-04-18T10:54:48.718Z,37.35
2018-04-18T10:57:18.338Z,36.61
2018-04-18T10:59:49.162Z,36.71
2018-04-18T11:02:18.716Z,36.55
2018-04-18T11:04:48.225Z,38.36
2018-04-18T11:07:19.042Z,40.52
2018-04-18T11:09:49.496Z,40.40
2018-04-18T11:12:19.484Z,37.63
2018-04-18T11:14:49.889Z,36.33
2018-04-18T11:17:19.370Z,37.15
2018-04-18T11:19:49.061Z,34.27
2018-04-18T11:22:18.793Z,31.11
2018-04-18T11:24:48.554Z,31.93
2018-04-18T11:27:18.302Z,31.46
2018-04-18T11:29:47.715Z,32.37
2018-04-18T11:32:17.378Z,32.17
2018-04-18T11:34:47.439Z,33.72
2018-04-18T11:37:16.851Z,34.44
2018-04-18T11:39:46.325Z,34.42
2018-04-18T11:42:16.361Z,34.35
2018-04-18T11:44:46.786Z,33.56
2018-04-18T11:47:16.468Z,34.87
2018-04-18T11:49:46.263Z,36.15
2018-04-18T11:52:15.716Z,37.95
2018-04-18T11:54:45.159Z,36.76
2018-04-18T11:57:15.104Z,34.25
2018-04-18T11:59:44.799Z,32.54
2018-04-18T12:02:14.299Z,34.15
2018-04-18T12:04:44.184Z,34.27
2018-04-18T12:07:13.687Z,36.52
2018-04-18T12:09:43.095Z,32.91
2018-04-18T12:12:12.829Z,33.02
2018-04-18T12:14:44.184Z,31.94
2018-04-18T12:17:13.944Z,31.57
2018-04-18T12:19:44.783Z,34.40
2018-04-18T12:22:14.257Z,35.35
2018-04-18T12:24:43.704Z,38.11
2018-04-18T12:27:13.522Z,35.83
2018-04-18T12:29:42.939Z,36.31
2018-04-18T12:32:12.776Z,36.74
2018-04-18T12:34:42.881Z,36.80
2018-04-18T12:37:12.509Z,36.39
2018-04-18T12:39:45.655Z,34.65
2018-04-18T12:42:15.389Z,34.24
2018-04-18T12:44:48.871Z,36.42
2018-04-18T12:47:18.853Z,35.77
2018-04-18T12:49:48.258Z,35.17
2018-04-18T12:52:17.706Z,33.24
2018-04-18T12:54:47.446Z,33.02
2018-04-18T12:57:19.105Z,34.62
2018-04-18T12:59:49.019Z,35.47
2018-04-18T13:02:18.619Z,33.41
2018-04-18T13:04:48.363Z,34.48
2018-04-18T13:07:25.263Z,33.63
2018-04-18T13:09:54.719Z,34.02
2018-04-18T13:12:28.256Z,33.01
2018-04-18T13:14:58.699Z,33.07
2018-04-18T13:17:28.161Z,35.34
2018-04-18T13:19:57.991Z,33.01
2018-04-18T13:22:27.636Z,33.94
2018-04-18T13:24:57.104Z,33.50
2018-04-18T13:27:26.891Z,32.11
2018-04-18T13:29:56.390Z,32.60
2018-04-18T13:32:27.188Z,33.94
2018-04-18T13:34:56.892Z,34.27
2018-04-18T13:37:26.426Z,34.85
2018-04-18T13:39:56.335Z,33.65
2018-04-18T13:42:26.149Z,33.58
2018-04-18T13:44:55.702Z,32.61
2018-04-18T13:47:25.233Z,33.58
2018-04-18T13:49:54.930Z,33.98
2018-04-18T13:52:27.888Z,34.22
2018-04-18T13:55:00.041Z,34.92
2018-04-18T13:57:38.520Z,35.68
2018-04-18T14:00:12.431Z,34.60
2018-04-18T14:02:43.880Z,35.92
2018-04-18T14:05:20.723Z,35.54
2018-04-18T14:07:50.700Z,35.18
2018-04-18T14:10:20.273Z,34.81
2018-04-18T14:12:50.940Z,35.62
2018-04-18T14:15:20.919Z,35.08
2018-04-18T14:17:50.551Z,36.25
2018-04-18T14:20:19.998Z,35.84
2018-04-18T14:22:49.709Z,35.08
2018-04-18T14:25:19.435Z,33.94
2018-04-18T14:27:48.845Z,34.03
2018-04-18T14:30:20.210Z,36.01
2018-04-18T14:32:49.773Z,35.06
2018-04-18T14:35:20.226Z,34.82
2018-04-18T14:37:49.976Z,34.43
2018-04-18T14:40:19.441Z,33.10
2018-04-18T14:42:48.862Z,34.22
2018-04-18T14:45:18.672Z,35.07
2018-04-18T14:47:48.198Z,33.34
2018-04-18T14:50:18.096Z,33.21
2018-04-18T14:52:47.973Z,32.85
2018-04-18T14:55:17.414Z,33.53
2018-04-18T14:57:46.978Z,34.36
2018-04-18T15:00:16.866Z,34.17
2018-04-18T15:02:46.424Z,36.03
2018-04-18T15:05:15.919Z,35.24
2018-04-18T15:07:45.862Z,34.76
2018-04-18T15:10:15.320Z,34.58
2018-04-18T15:12:44.886Z,34.60
2018-04-18T15:15:14.660Z,34.85
2018-04-18T15:17:44.175Z,35.46
2018-04-18T15:20:13.605Z,34.65
2018-04-18T15:22:43.501Z,35.33
2018-04-18T15:25:13.219Z,34.91
2018-04-18T15:27:42.679Z,35.96
2018-04-18T15:30:12.826Z,37.17
2018-04-18T15:32:42.290Z,36.05
2018-04-18T15:35:11.874Z,35.58
2018-04-18T15:37:41.591Z,35.38
2018-04-18T15:40:11.250Z,35.05
2018-04-18T15:42:40.713Z,35.76
2018-04-18T15:45:10.629Z,35.64
2018-04-18T15:47:40.080Z,35.38
2018-04-18T15:50:09.820Z,36.13
2018-04-18T15:52:39.518Z,35.01
2018-04-18T15:55:09.056Z,35.52
2018-04-18T15:57:38.542Z,34.39
2018-04-18T16:00:08.609Z,34.48
2018-04-18T16:02:38.070Z,36.15
2018-04-18T16:05:07.775Z,35.89
2018-04-18T16:07:37.534Z,35.82
2018-04-18T16:10:07.153Z,35.39
2018-04-18T16:12:36.751Z,34.11
2018-04-18T16:15:06.622Z,35.53
2018-04-18T16:17:36.079Z,36.52
2018-04-18T16:20:05.902Z,36.73
2018-04-18T16:22:35.637Z,36.97
2018-04-18T16:25:05.146Z,36.82
2018-04-18T16:27:34.859Z,37.29
2018-04-18T16:30:05.100Z,37.22
2018-04-18T16:32:34.614Z,37.60
2018-04-18T16:35:04.384Z,36.25
2018-04-18T16:37:34.271Z,35.96
2018-04-18T16:40:03.861Z,36.52
2018-04-18T16:42:33.442Z,36.44
2018-04-18T16:45:04.183Z,37.00
2018-04-18T16:47:33.660Z,37.83
2018-04-18T16:50:04.870Z,36.71
2018-04-18T16:52:35.127Z,36.44
2018-04-18T16:55:04.762Z,36.18
2018-04-18T16:57:34.492Z,36.01
2018-04-18T17:00:04.666Z,35.97
2018-04-18T17:02:34.189Z,36.24
2018-04-18T17:05:04.091Z,35.88
2018-04-18T17:07:34.198Z,36.00
2018-04-18T17:10:03.767Z,36.58
2018-04-18T17:12:33.591Z,36.49
2018-04-18T17:15:03.416Z,36.49
2018-04-18T17:17:32.914Z,36.86
2018-04-18T17:20:02.324Z,36.61
2018-04-18T17:22:33.306Z,37.29
2018-04-18T17:25:02.766Z,37.67
2018-04-18T17:27:32.198Z,37.73
2018-04-18T17:30:01.985Z,37.17
2018-04-18T17:32:31.372Z,37.43
2018-04-18T17:35:00.807Z,38.22
2018-04-18T17:37:30.398Z,37.83
2018-04-18T17:39:59.844Z,38.70
2018-04-18T17:42:29.271Z,39.28
2018-04-18T17:44:59.613Z,39.26
2018-04-18T17:47:29.270Z,39.40
2018-04-18T17:49:58.889Z,39.79
2018-04-18T17:52:28.764Z,39.67
2018-04-18T17:54:58.721Z,39.18
2018-04-18T17:57:28.576Z,40.11
2018-04-18T17:59:58.301Z,38.63
2018-04-18T18:02:27.769Z,40.50
2018-04-18T18:04:57.543Z,39.75
2018-04-18T18:07:27.338Z,39.55
2018-04-18T18:09:56.909Z,39.69
2018-04-18T18:12:26.415Z,39.11
2018-04-18T18:14:56.378Z,39.51
2018-04-18T18:17:25.872Z,39.43
2018-04-18T18:19:55.678Z,39.45
2018-04-18T18:22:25.521Z,39.72
2018-04-18T18:24:55.310Z,40.23
2018-04-18T18:27:25.078Z,39.90
2018-04-18T18:29:55.080Z,39.82
2018-04-18T18:32:24.501Z,40.01
2018-04-18T18:34:53.999Z,40.42
2018-04-18T18:37:23.700Z,40.34
2018-04-18T18:39:53.215Z,40.14
2018-04-18T18:42:22.692Z,41.59
2018-04-18T18:44:52.471Z,41.75
2018-04-18T18:47:22.051Z,42.22
2018-04-18T18:49:51.562Z,42.39
2018-04-18T18:52:21.490Z,42.22
2018-04-18T18:54:50.900Z,42.22
2018-04-18T18:57:20.369Z,42.37
2018-04-18T18:59:50.215Z,43.18
2018-04-18T19:02:19.666Z,43.19
2018-04-18T19:04:49.078Z,43.40
2018-04-18T19:07:18.815Z,43.31
2018-04-18T19:09:48.262Z,43.49
2018-04-18T19:12:17.723Z,43.56
2018-04-18T19:14:47.803Z,43.53
2018-04-18T19:17:17.358Z,43.40
2018-04-18T19:19:46.814Z,43.76
2018-04-18T19:22:16.603Z,44.87
2018-04-18T19:24:46.083Z,45.13
2018-04-18T19:27:15.515Z,44.69
2018-04-18T19:29:45.249Z,45.14
2018-04-18T19:32:14.748Z,46.37
2018-04-18T19:34:44.171Z,46.66
2018-04-18T19:37:14.178Z,47.45
2018-04-18T19:39:43.652Z,46.69
2018-04-18T19:42:13.233Z,46.64
2018-04-18T19:44:42.999Z,46.08
2018-04-18T19:47:12.430Z,45.95
2018-04-18T19:49:41.886Z,46.04
2018-04-18T19:52:11.608Z,45.70
2018-04-18T19:54:41.059Z,46.25
2018-04-18T19:57:10.475Z,46.25
2018-04-18T19:59:40.262Z,46.40
2018-04-18T20:02:09.667Z,46.73
2018-04-18T20:04:39.289Z,45.81
2018-04-18T20:07:09.097Z,46.01
2018-04-18T20:09:38.766Z,46.30
2018-04-18T20:12:08.187Z,46.34
2018-04-18T20:14:38.045Z,46.69
2018-04-18T20:17:07.674Z,46.79
2018-04-18T20:19:37.136Z,46.74
2018-04-18T20:22:06.846Z,46.40
2018-04-18T20:24:36.414Z,46.40
2018-04-18T20:27:05.894Z,46.63
2018-04-18T20:29:35.590Z,46.37
2018-04-18T20:32:05.172Z,46.76
2018-04-18T20:34:34.601Z,46.09
2018-04-18T20:37:04.494Z,45.92
2018-04-18T20:39:33.874Z,46.11
2018-04-18T20:42:03.328Z,46.02
2018-04-18T20:44:33.053Z,46.84
2018-04-18T20:47:02.529Z,47.29
2018-04-18T20:49:32.242Z,47.26
2018-04-18T20:52:01.925Z,47.33
2018-04-18T20:54:31.463Z,47.44
2018-04-18T20:57:00.886Z,47.78
2018-04-18T20:59:30.673Z,48.46
2018-04-18T21:02:00.145Z,48.46
2018-04-18T21:04:30.443Z,49.02
2018-04-18T21:07:00.203Z,48.84
2018-04-18T21:09:29.654Z,48.94
2018-04-18T21:11:59.113Z,49.01
2018-04-18T21:14:28.838Z,48.72
2018-04-18T21:16:58.303Z,49.12
2018-04-18T21:19:27.709Z,49.38
2018-04-18T21:21:57.412Z,49.62
2018-04-18T21:24:27.050Z,49.96
2018-04-18T21:26:56.759Z,50.60
2018-04-18T21:29:26.455Z,50.86
2018-04-18T21:31:56.136Z,51.08
2018-04-18T21:34:25.618Z,51.36
2018-04-18T21:36:55.325Z,52.44
2018-04-18T21:39:24.846Z,52.04
2018-04-18T21:41:54.575Z,52.75
2018-04-18T21:44:24.340Z,52.27
2018-04-18T21:46:53.897Z,51.70
2018-04-18T21:49:23.323Z,51.88
2018-04-18T21:51:53.007Z,51.81
2018-04-18T21:54:22.526Z,51.83
2018-04-18T21:56:51.926Z,52.08
2018-04-18T21:59:21.646Z,52.34
2018-04-18T22:11:58.220Z,55.16
2018-04-18T22:17:51.385Z,54.10
2018-04-18T22:20:30.184Z,53.74
2018-04-18T22:23:01.814Z,53.89
2018-04-18T22:25:31.585Z,53.36
2018-04-18T22:28:01.027Z,53.25
2018-04-18T22:30:31.149Z,53.54
2018-04-18T22:33:01.510Z,54.96
2018-04-18T22:35:31.269Z,54.09
2018-04-18T22:38:01.242Z,55.10
2018-04-18T22:40:31.093Z,53.82
2018-04-18T22:43:00.669Z,54.65
2018-04-18T22:45:30.797Z,54.58
2018-04-18T22:48:00.185Z,54.08
2018-04-18T22:50:29.649Z,54.36
2018-04-18T22:52:59.371Z,54.13
2018-04-18T22:55:28.858Z,54.18
2018-04-18T22:57:58.325Z,53.98
2018-04-18T23:00:28.204Z,56.40
2018-04-18T23:02:57.617Z,57.53
2018-04-18T23:05:27.009Z,58.24
2018-04-18T23:07:56.789Z,57.42
2018-04-18T23:10:26.210Z,56.98
2018-04-18T23:12:56.148Z,56.84
2018-04-18T23:15:25.873Z,56.54
2018-04-18T23:17:55.443Z,56.88
2018-04-18T23:20:24.821Z,56.09
2018-04-18T23:22:54.765Z,55.55
2018-04-18T23:25:24.160Z,55.89
2018-04-18T23:27:53.558Z,55.97
2018-04-18T23:30:23.355Z,55.67
2018-04-18T23:32:53.029Z,55.89
2018-04-18T23:35:22.662Z,55.72
2018-04-18T23:37:52.922Z,55.67
2018-04-18T23:40:22.397Z,55.50
2018-04-18T23:42:51.785Z,56.02
2018-04-18T23:45:21.935Z,55.68
2018-04-18T23:47:51.319Z,55.88
2018-04-18T23:50:21.093Z,55.67
2018-04-18T23:52:51.119Z,56.01
2018-04-18T23:55:20.508Z,55.77
2018-04-18T23:57:50.174Z,55.28
